Time;durP1;ratioP1;P1;durP2;ratioP2;P2;SDS_P1;SDS_P2;PMS_P1;PMS_P2;Temp;Humidity;BMP_temperature;BMP_pressure;BME280_temperature;BME280_humidity;BME280_pressure;Samples;Min_cycle;Max_cycle;Signal;HPM_P1;HPM_P2
2022/04/30 00:02:07;;;;;;;30.95;19.67;;;;;;;;;;5053499;28;20435;-37
2022/04/30 00:04:37;;;;;;;32.10;18.63;;;;;;;;;;5053430;28;20078;-38
2022/04/30 00:07:04;;;;;;;57.33;32.00;;;;;;;;;;5053539;28;20108;-38
2022/04/30 00:09:30;;;;;;;29.17;18.40;;;;;;;;;;5053446;28;20361;-39
2022/04/30 00:11:57;;;;;;;40.08;23.50;;;;;;;;;;5053530;28;20021;-37
2022/04/30 00:14:24;;;;;;;42.55;25.52;;;;;;;;;;5053198;28;20028;-39
2022/04/30 00:16:50;;;;;;;36.58;19.23;;;;;;;;;;5052500;28;20056;-37
2022/04/30 00:19:16;;;;;;;24.58;16.02;;;;;;;;;;5052979;28;20036;-36
2022/04/30 00:21:42;;;;;;;53.17;30.95;;;;;;;;;;5052614;28;20024;-36
2022/04/30 00:24:08;;;;;;;42.13;25.85;;;;;;;;;;5052534;28;20028;-35
2022/04/30 00:26:35;;;;;;;26.80;15.70;;;;;;;;;;5052490;28;20471;-38
2022/04/30 00:29:01;;;;;;;21.52;12.02;;;;;;;;;;5052206;28;20056;-39
2022/04/30 00:31:27;;;;;;;31.45;16.75;;;;;;;;;;5052627;28;20025;-38
2022/04/30 00:33:53;;;;;;;22.92;15.10;;;;;;;;;;5052282;28;20040;-39
2022/04/30 00:36:20;;;;;;;22.95;14.35;;;;;;;;;;5052031;28;20033;-38
2022/04/30 00:38:46;;;;;;;19.00;12.40;;;;;;;;;;5052001;28;20033;-35
2022/04/30 00:41:12;;;;;;;19.23;12.23;;;;;;;;;;5052454;28;20025;-40
2022/04/30 00:43:45;;;;;;;23.20;12.93;;;;;;;;;;5052954;28;20024;-39
2022/04/30 00:46:23;;;;;;;17.58;10.32;;;;;;;;;;5055333;28;20032;-38
2022/04/30 00:48:50;;;;;;;19.35;11.50;;;;;;;;;;5056847;28;20029;-39
2022/04/30 00:51:19;;;;;;;19.83;12.57;;;;;;;;;;5057044;28;20464;-38
2022/04/30 00:53:46;;;;;;;19.67;11.32;;;;;;;;;;5057076;28;20029;-41
2022/04/30 00:56:13;;;;;;;20.60;12.50;;;;;;;;;;5056620;28;20025;-38
2022/04/30 00:58:44;;;;;;;20.85;12.55;;;;;;;;;;5057090;28;20431;-38
2022/04/30 01:01:11;;;;;;;33.90;18.57;;;;;;;;;;5056617;28;20178;-38
2022/04/30 01:03:37;;;;;;;29.50;17.95;;;;;;;;;;5056787;28;20087;-39
2022/04/30 01:06:04;;;;;;;26.85;15.93;;;;;;;;;;5056982;28;20036;-37
2022/04/30 01:08:31;;;;;;;20.63;12.80;;;;;;;;;;5056781;28;20024;-40
2022/04/30 01:10:57;;;;;;;26.23;13.20;;;;;;;;;;5056600;28;20033;-38
2022/04/30 01:13:23;;;;;;;19.75;12.95;;;;;;;;;;5056604;28;20021;-40
2022/04/30 01:15:50;;;;;;;32.40;19.92;;;;;;;;;;5055081;28;20149;-39
2022/04/30 01:18:16;;;;;;;27.65;15.95;;;;;;;;;;5056737;28;20032;-38
2022/04/30 01:20:51;;;;;;;26.13;16.13;;;;;;;;;;5056547;28;20034;-37
2022/04/30 01:23:18;;;;;;;29.17;16.67;;;;;;;;;;5056375;28;20129;-38
2022/04/30 01:25:44;;;;;;;23.52;15.05;;;;;;;;;;5056012;28;20017;-37
2022/04/30 01:28:12;;;;;;;25.85;14.85;;;;;;;;;;5056547;28;20040;-39
2022/04/30 01:30:38;;;;;;;29.02;17.02;;;;;;;;;;5056122;28;20040;-38
2022/04/30 01:38:33;;;;;;;19.70;12.55;;;;;;;;;;5064306;28;20531;-39
2022/04/30 01:41:00;;;;;;;18.83;11.35;;;;;;;;;;5056039;28;20140;-37
2022/04/30 01:43:29;;;;;;;20.77;12.57;;;;;;;;;;5056102;28;20021;-38
2022/04/30 01:45:55;;;;;;;21.27;12.88;;;;;;;;;;5056068;28;20021;-36
2022/04/30 01:48:22;;;;;;;18.77;12.48;;;;;;;;;;5067443;28;20128;-37
2022/04/30 01:50:48;;;;;;;18.55;12.27;;;;;;;;;;5074393;28;20049;-37
2022/04/30 01:53:15;;;;;;;20.45;12.27;;;;;;;;;;5075954;28;20469;-43
2022/04/30 01:55:41;;;;;;;18.48;11.88;;;;;;;;;;5064628;28;20483;-40
2022/04/30 01:58:07;;;;;;;16.02;11.80;;;;;;;;;;5055759;28;20091;-39
2022/04/30 02:00:33;;;;;;;17.58;11.88;;;;;;;;;;5055868;28;20472;-40
2022/04/30 02:03:09;;;;;;;16.77;11.35;;;;;;;;;;5055578;28;20025;-41
2022/04/30 02:05:37;;;;;;;21.05;13.68;;;;;;;;;;5055639;28;20430;-41
2022/04/30 02:08:08;;;;;;;20.05;12.15;;;;;;;;;;5055884;28;20377;-39
2022/04/30 02:10:37;;;;;;;16.90;11.07;;;;;;;;;;5071784;28;20054;-38
2022/04/30 02:13:07;;;;;;;21.63;12.63;;;;;;;;;;5075846;28;20032;-38
2022/04/30 02:15:37;;;;;;;18.27;11.57;;;;;;;;;;5075516;28;20021;-40
2022/04/30 02:18:03;;;;;;;23.52;12.75;;;;;;;;;;5075605;28;20037;-38
2022/04/30 02:20:33;;;;;;;20.27;11.95;;;;;;;;;;5075675;28;20353;-38
2022/04/30 02:23:08;;;;;;;19.75;12.18;;;;;;;;;;5075352;28;20383;-37
2022/04/30 02:25:35;;;;;;;19.02;11.25;;;;;;;;;;5065260;28;20082;-38
2022/04/30 02:28:04;;;;;;;24.67;15.23;;;;;;;;;;5055278;28;20021;-38
2022/04/30 02:30:31;;;;;;;22.67;13.57;;;;;;;;;;5055048;28;20044;-38
2022/04/30 02:33:02;;;;;;;18.35;12.68;;;;;;;;;;5054339;28;20380;-38
2022/04/30 02:35:33;;;;;;;17.60;11.98;;;;;;;;;;5055285;28;20041;-37
2022/04/30 02:38:00;;;;;;;19.45;12.02;;;;;;;;;;5054845;28;20025;-38
2022/04/30 02:40:29;;;;;;;22.73;13.70;;;;;;;;;;5055072;28;20028;-37
2022/04/30 02:43:01;;;;;;;20.00;12.90;;;;;;;;;;5055071;28;20086;-37
2022/04/30 02:45:27;;;;;;;;;;;;;;;;;;5055248;28;20033;-36
2022/04/30 02:47:56;;;;;;;16.48;10.98;;;;;;;;;;5054724;28;19912;-36
2022/04/30 02:50:23;;;;;;;18.77;11.40;;;;;;;;;;5054692;28;20052;-37
2022/04/30 02:52:50;;;;;;;21.50;13.23;;;;;;;;;;5054740;28;20024;-37
2022/04/30 02:55:17;;;;;;;21.77;13.00;;;;;;;;;;5054533;28;20036;-35
2022/04/30 02:59:53;;;;;;;21.27;12.55;;;;;;;;;;5054687;28;20503;-35
2022/04/30 03:00:29;;;;;;;20.92;11.57;;;;;;;;;;5054480;28;20033;-36
2022/04/30 03:02:56;;;;;;;18.80;11.60;;;;;;;;;;5054304;28;20025;-34
2022/04/30 03:05:22;;;;;;;18.23;11.52;;;;;;;;;;5054495;28;20473;-35
2022/04/30 03:07:48;;;;;;;16.60;10.13;;;;;;;;;;5053985;28;20029;-35
2022/04/30 03:10:14;;;;;;;14.13;9.30;;;;;;;;;;5054367;28;20162;-35
2022/04/30 03:12:42;;;;;;;15.48;10.55;;;;;;;;;;5054335;28;20475;-35
2022/04/30 03:15:08;;;;;;;15.55;10.32;;;;;;;;;;5054306;28;20380;-35
2022/04/30 03:23:04;;;;;;;13.93;9.00;;;;;;;;;;5054706;28;20044;-35
2022/04/30 03:25:30;;;;;;;13.98;10.18;;;;;;;;;;5053919;28;20066;-34
2022/04/30 03:27:56;;;;;;;14.48;9.32;;;;;;;;;;5054060;28;20025;-35
2022/04/30 03:30:25;;;;;;;16.55;9.00;;;;;;;;;;5054112;28;20548;-35
2022/04/30 03:32:52;;;;;;;15.75;9.32;;;;;;;;;;5053971;28;20032;-35
2022/04/30 03:35:18;;;;;;;13.10;8.38;;;;;;;;;;5054249;28;20113;-36
2022/04/30 03:37:44;;;;;;;17.30;9.02;;;;;;;;;;5054125;28;20021;-37
2022/04/30 03:40:10;;;;;;;15.70;8.90;;;;;;;;;;5054252;28;20094;-37
2022/04/30 03:42:37;;;;;;;16.83;9.90;;;;;;;;;;5054323;28;20055;-37
2022/04/30 03:45:03;;;;;;;15.10;9.02;;;;;;;;;;5053994;28;20071;-38
2022/04/30 03:47:30;;;;;;;18.92;9.60;;;;;;;;;;5053823;28;20461;-35
2022/04/30 03:49:56;;;;;;;15.48;9.20;;;;;;;;;;5053312;28;20055;-37
2022/04/30 03:52:22;;;;;;;13.75;8.57;;;;;;;;;;5053972;28;20025;-36
2022/04/30 03:54:51;;;;;;;28.58;14.40;;;;;;;;;;5053500;28;20025;-38
2022/04/30 03:57:17;;;;;;;28.95;13.25;;;;;;;;;;5054133;28;20416;-35
2022/04/30 03:59:43;;;;;;;23.52;13.07;;;;;;;;;;5053865;28;20033;-36
2022/04/30 04:02:09;;;;;;;15.30;9.65;;;;;;;;;;5053476;28;20090;-35
2022/04/30 04:04:35;;;;;;;19.63;10.82;;;;;;;;;;5053493;28;20025;-35
2022/04/30 04:07:03;;;;;;;18.48;10.35;;;;;;;;;;5052343;28;20021;-35
2022/04/30 04:09:29;;;;;;;28.95;15.10;;;;;;;;;;5053476;28;20514;-37
2022/04/30 04:11:55;;;;;;;22.80;13.55;;;;;;;;;;5053875;28;20107;-36
2022/04/30 04:19:53;;;;;;;14.68;8.40;;;;;;;;;;5052949;28;20047;-37
2022/04/30 04:22:19;;;;;;;30.02;15.07;;;;;;;;;;5053248;28;20477;-44
2022/04/30 04:27:30;;;;;;;12.93;8.38;;;;;;;;;;5053018;28;20032;-37
2022/04/30 04:29:56;;;;;;;14.80;8.55;;;;;;;;;;5053236;28;20037;-38
2022/04/30 04:32:24;;;;;;;14.82;9.65;;;;;;;;;;5053400;28;20032;-40
2022/04/30 04:34:50;;;;;;;14.65;8.25;;;;;;;;;;5053235;28;20044;-37
2022/04/30 04:37:16;;;;;;;14.82;8.88;;;;;;;;;;5053770;28;20108;-41
2022/04/30 04:39:42;;;;;;;15.77;9.30;;;;;;;;;;5053513;28;20053;-44
2022/04/30 04:42:08;;;;;;;14.25;8.38;;;;;;;;;;5053173;28;20492;-40
2022/04/30 04:44:37;;;;;;;18.02;11.00;;;;;;;;;;5053219;28;20027;-36
2022/04/30 04:47:03;;;;;;;16.38;10.13;;;;;;;;;;5052296;28;20025;-38
2022/04/30 04:49:30;;;;;;;18.13;10.90;;;;;;;;;;5052912;28;20049;-41
2022/04/30 04:52:01;;;;;;;21.17;10.80;;;;;;;;;;5052264;28;20017;-38
2022/04/30 04:54:27;;;;;;;20.85;12.18;;;;;;;;;;5053242;28;20087;-39
2022/04/30 04:56:53;;;;;;;25.70;15.25;;;;;;;;;;5053235;28;20036;-41
2022/04/30 04:59:19;;;;;;;33.60;19.60;;;;;;;;;;5053054;28;20028;-38
2022/04/30 05:01:47;;;;;;;39.97;20.88;;;;;;;;;;5053026;28;20057;-40
2022/04/30 05:04:14;;;;;;;36.88;20.17;;;;;;;;;;5052950;28;20035;-40
2022/04/30 05:06:40;;;;;;;26.08;14.98;;;;;;;;;;5052898;28;20366;-36
2022/04/30 05:09:06;;;;;;;22.75;13.73;;;;;;;;;;5052806;28;20104;-40
2022/04/30 05:11:32;;;;;;;25.40;12.02;;;;;;;;;;5053051;28;20048;-40
2022/04/30 05:13:58;;;;;;;15.95;10.25;;;;;;;;;;5052758;28;20457;-37
2022/04/30 05:16:24;;;;;;;16.02;10.48;;;;;;;;;;5052970;28;20025;-37
2022/04/30 05:18:50;;;;;;;18.77;11.38;;;;;;;;;;5052638;28;20464;-40
2022/04/30 05:21:17;;;;;;;21.17;12.80;;;;;;;;;;5052930;28;20238;-38
2022/04/30 05:23:43;;;;;;;15.10;10.75;;;;;;;;;;5052922;28;20033;-37
2022/04/30 05:26:09;;;;;;;15.95;11.05;;;;;;;;;;5052831;28;20094;-38
2022/04/30 05:28:35;;;;;;;16.45;9.73;;;;;;;;;;5052881;28;20400;-40
2022/04/30 05:31:03;;;;;;;14.68;10.38;;;;;;;;;;5052778;28;20029;-37
2022/04/30 05:33:34;;;;;;;15.85;11.00;;;;;;;;;;5056634;28;20507;-38
2022/04/30 05:36:01;;;;;;;17.80;11.90;;;;;;;;;;5056287;28;20074;-38
2022/04/30 05:38:27;;;;;;;17.00;11.38;;;;;;;;;;5056390;28;20021;-40
2022/04/30 05:40:53;;;;;;;21.98;11.65;;;;;;;;;;5056411;28;20029;-40
2022/04/30 05:43:19;;;;;;;18.13;11.68;;;;;;;;;;5056156;28;20063;-43
2022/04/30 05:45:46;;;;;;;18.50;11.52;;;;;;;;;;5056159;28;20061;-39
2022/04/30 05:48:14;;;;;;;18.88;12.15;;;;;;;;;;5054924;28;20108;-40
2022/04/30 05:50:41;;;;;;;26.25;16.00;;;;;;;;;;5055882;28;20056;-42
2022/04/30 05:53:07;;;;;;;33.50;17.90;;;;;;;;;;5055961;28;20142;-43
2022/04/30 05:55:33;;;;;;;35.65;18.35;;;;;;;;;;5055850;28;20056;-42
2022/04/30 05:57:59;;;;;;;33.28;18.52;;;;;;;;;;5056026;28;20033;-41
2022/04/30 06:00:26;;;;;;;21.58;14.27;;;;;;;;;;5055941;28;20025;-38
2022/04/30 06:02:52;;;;;;;31.45;18.55;;;;;;;;;;5054638;28;20021;-38
2022/04/30 06:05:18;;;;;;;21.35;13.35;;;;;;;;;;5055904;28;20048;-40
2022/04/30 06:07:44;;;;;;;21.08;14.43;;;;;;;;;;5056074;28;20429;-36
2022/04/30 06:10:10;;;;;;;22.17;14.30;;;;;;;;;;5055753;28;20037;-39
2022/04/30 06:12:36;;;;;;;19.40;13.02;;;;;;;;;;5055655;28;20078;-40
2022/04/30 06:15:02;;;;;;;19.70;12.48;;;;;;;;;;5055768;28;20423;-39
2022/04/30 06:17:28;;;;;;;21.02;11.98;;;;;;;;;;5055442;28;20051;-39
2022/04/30 06:19:55;;;;;;;14.27;11.35;;;;;;;;;;5055540;28;20027;-40
2022/04/30 06:22:21;;;;;;;16.52;12.15;;;;;;;;;;5055982;28;20143;-42
2022/04/30 06:24:47;;;;;;;17.15;11.98;;;;;;;;;;5054812;28;20108;-38
2022/04/30 06:27:14;;;;;;;16.70;11.73;;;;;;;;;;5055265;28;20483;-39
2022/04/30 06:29:40;;;;;;;23.65;14.57;;;;;;;;;;5055461;28;20029;-40
2022/04/30 06:32:06;;;;;;;20.05;13.70;;;;;;;;;;5055107;28;20549;-40
2022/04/30 06:34:32;;;;;;;20.27;14.35;;;;;;;;;;5055027;28;20025;-41
2022/04/30 06:36:58;;;;;;;21.30;14.35;;;;;;;;;;5055241;28;20057;-41
2022/04/30 06:39:26;;;;;;;18.23;13.35;;;;;;;;;;5055102;28;20025;-41
2022/04/30 06:41:53;;;;;;;17.75;13.85;;;;;;;;;;5055136;28;20032;-38
2022/04/30 06:44:19;;;;;;;18.27;13.55;;;;;;;;;;5054110;28;20542;-38
2022/04/30 06:46:45;;;;;;;21.92;14.57;;;;;;;;;;5055253;28;20029;-39
2022/04/30 06:49:11;;;;;;;19.02;14.40;;;;;;;;;;5054509;28;20041;-38
2022/04/30 06:51:37;;;;;;;19.33;13.10;;;;;;;;;;5055123;28;20094;-38
2022/04/30 06:59:36;;;;;;;14.73;11.20;;;;;;;;;;5054901;28;20040;-41
2022/04/30 07:02:06;;;;;;;17.13;12.30;;;;;;;;;;5054698;28;20080;-39
2022/04/30 07:04:32;;;;;;;15.38;11.73;;;;;;;;;;5054445;28;20032;-43
2022/04/30 07:06:59;;;;;;;16.98;11.32;;;;;;;;;;5054672;28;20465;-40
2022/04/30 07:09:25;;;;;;;13.27;9.55;;;;;;;;;;5054646;28;20028;-41
2022/04/30 07:11:51;;;;;;;16.13;10.38;;;;;;;;;;5054411;28;20047;-40
2022/04/30 07:14:17;;;;;;;15.88;11.27;;;;;;;;;;5054445;28;20031;-42
2022/04/30 07:16:43;;;;;;;15.95;10.45;;;;;;;;;;5054270;28;20464;-38
2022/04/30 07:19:09;;;;;;;12.65;10.15;;;;;;;;;;5054478;28;20033;-41
2022/04/30 07:21:36;;;;;;;14.90;11.30;;;;;;;;;;5053809;28;20067;-41
2022/04/30 07:24:02;;;;;;;18.67;12.10;;;;;;;;;;5053839;28;20159;-40
2022/04/30 07:26:28;;;;;;;17.55;13.27;;;;;;;;;;5054017;28;20021;-39
2022/04/30 07:28:54;;;;;;;16.35;12.27;;;;;;;;;;5054296;28;20028;-39
2022/04/30 07:31:23;;;;;;;15.30;12.52;;;;;;;;;;5053888;28;20044;-41
2022/04/30 07:33:51;;;;;;;18.33;13.38;;;;;;;;;;5053873;28;20562;-41
2022/04/30 07:36:17;;;;;;;17.05;12.52;;;;;;;;;;5054104;28;20033;-42
2022/04/30 07:38:43;;;;;;;17.85;10.90;;;;;;;;;;5054045;28;20025;-42
2022/04/30 07:41:09;;;;;;;15.30;11.65;;;;;;;;;;5053563;28;20446;-39
2022/04/30 07:43:36;;;;;;;16.13;11.48;;;;;;;;;;5053776;28;20021;-41
2022/04/30 07:46:02;;;;;;;15.00;11.68;;;;;;;;;;5053853;28;20029;-39
2022/04/30 07:48:28;;;;;;;14.55;10.80;;;;;;;;;;5053947;28;20156;-39
2022/04/30 07:50:57;;;;;;;13.77;9.98;;;;;;;;;;5053329;28;20044;-42
2022/04/30 07:53:24;;;;;;;14.50;8.65;;;;;;;;;;5053795;28;20045;-41
2022/04/30 07:55:50;;;;;;;9.90;7.43;;;;;;;;;;5053340;28;20421;-39
2022/04/30 07:58:17;;;;;;;11.13;8.25;;;;;;;;;;5053524;28;20025;-41
2022/04/30 08:00:43;;;;;;;12.65;8.50;;;;;;;;;;5053769;28;20032;-41
2022/04/30 08:03:11;;;;;;;7.90;6.60;;;;;;;;;;5053601;28;20026;-39
2022/04/30 08:05:37;;;;;;;10.13;7.75;;;;;;;;;;5052645;28;20523;-42
2022/04/30 08:08:04;;;;;;;10.85;7.78;;;;;;;;;;5053490;28;20070;-41
2022/04/30 08:10:32;;;;;;;10.10;8.32;;;;;;;;;;5052077;28;20424;-41
2022/04/30 08:12:59;;;;;;;10.55;8.15;;;;;;;;;;5052536;28;20063;-42
2022/04/30 08:15:28;;;;;;;8.35;6.00;;;;;;;;;;5053431;28;20044;-38
2022/04/30 08:17:55;;;;;;;8.40;6.65;;;;;;;;;;5053428;28;20020;-42
2022/04/30 08:20:21;;;;;;;9.32;6.95;;;;;;;;;;5053317;28;20428;-39
2022/04/30 08:22:47;;;;;;;10.25;6.43;;;;;;;;;;5053279;28;20370;-39
2022/04/30 08:25:13;;;;;;;7.38;4.95;;;;;;;;;;5053260;28;20021;-40
2022/04/30 08:27:40;;;;;;;6.70;5.22;;;;;;;;;;5053325;28;20142;-39
2022/04/30 08:30:07;;;;;;;9.35;5.95;;;;;;;;;;5053080;28;20074;-40
2022/04/30 08:32:33;;;;;;;14.70;8.82;;;;;;;;;;5053289;28;20031;-39
2022/04/30 08:35:01;;;;;;;10.50;6.80;;;;;;;;;;5052971;28;20028;-39
2022/04/30 08:37:27;;;;;;;14.50;9.27;;;;;;;;;;5052685;28;20079;-39
2022/04/30 08:39:53;;;;;;;15.75;11.57;;;;;;;;;;5053122;28;20028;-38
2022/04/30 08:42:23;;;;;;;10.60;7.32;;;;;;;;;;5052935;28;20108;-39
2022/04/30 08:44:49;;;;;;;6.97;4.70;;;;;;;;;;5052991;28;20067;-41
2022/04/30 08:47:15;;;;;;;4.22;3.58;;;;;;;;;;5053028;28;20029;-41
2022/04/30 08:49:42;;;;;;;3.70;3.22;;;;;;;;;;5052884;28;20051;-41
2022/04/30 08:52:15;;;;;;;7.68;5.40;;;;;;;;;;5052863;28;20477;-39
2022/04/30 08:54:41;;;;;;;7.43;5.82;;;;;;;;;;5052720;28;20096;-41
2022/04/30 08:57:08;;;;;;;8.35;5.13;;;;;;;;;;5052983;28;20377;-40
2022/04/30 08:59:35;;;;;;;9.07;5.97;;;;;;;;;;5052369;28;20438;-40
2022/04/30 09:02:08;;;;;;;8.10;6.35;;;;;;;;;;5052704;28;20060;-41
2022/04/30 09:04:48;;;;;;;12.07;7.65;;;;;;;;;;5052953;28;20100;-38
2022/04/30 09:07:19;;;;;;;9.68;7.30;;;;;;;;;;5055110;28;20029;-40
2022/04/30 09:09:45;;;;;;;;;;;;;;;;;;5057426;28;20017;-38
2022/04/30 09:12:13;;;;;;;9.13;6.97;;;;;;;;;;5056561;28;20284;-35
2022/04/30 09:14:40;;;;;;;8.48;6.20;;;;;;;;;;5056806;28;20028;-38
2022/04/30 09:17:07;;;;;;;7.05;5.05;;;;;;;;;;5056943;28;20036;-39
2022/04/30 09:19:53;;;;;;;8.05;4.93;;;;;;;;;;5056506;28;20017;-37
2022/04/30 09:22:38;;;;;;;8.38;4.55;;;;;;;;;;5056379;28;20380;-40
2022/04/30 09:25:15;;;;;;;6.88;4.75;;;;;;;;;;5056456;28;20028;-42
2022/04/30 09:27:46;;;;;;;3.95;3.28;;;;;;;;;;5056829;28;20025;-39
2022/04/30 09:30:20;;;;;;;5.15;2.60;;;;;;;;;;5055907;28;20053;-40
2022/04/30 09:32:46;;;;;;;4.78;3.00;;;;;;;;;;5053666;28;20090;-43
2022/04/30 09:38:07;;;;;;;7.18;5.55;;;;;;;;;;5054565;28;20119;-41
2022/04/30 09:40:33;;;;;;;4.47;3.63;;;;;;;;;;5055744;28;20488;-41
2022/04/30 09:43:01;;;;;;;4.45;2.42;;;;;;;;;;5055620;28;20148;-41
2022/04/30 09:45:34;;;;;;;4.82;2.65;;;;;;;;;;5055753;28;20032;-42
2022/04/30 09:48:01;;;;;;;7.22;4.05;;;;;;;;;;5053196;28;20434;-37
2022/04/30 09:56:08;;;;;;;7.43;4.47;;;;;;;;;;5056049;28;20040;-42
2022/04/30 09:58:39;;;;;;;3.60;2.00;;;;;;;;;;5055981;28;20021;-42
2022/04/30 10:01:08;;;;;;;1.77;1.33;;;;;;;;;;5055969;28;20028;-41
2022/04/30 10:03:34;;;;;;;2.97;2.38;;;;;;;;;;5055898;28;20018;-38
2022/04/30 10:06:02;;;;;;;2.28;2.03;;;;;;;;;;5055655;28;20025;-39
2022/04/30 10:08:29;;;;;;;1.90;1.70;;;;;;;;;;5055830;28;20484;-42
2022/04/30 10:11:00;;;;;;;2.75;2.10;;;;;;;;;;5055581;28;20075;-41
2022/04/30 10:13:34;;;;;;;5.32;2.65;;;;;;;;;;5055887;28;20523;-42
2022/04/30 10:16:02;;;;;;;2.22;1.98;;;;;;;;;;5055224;28;20025;-42
2022/04/30 10:18:42;;;;;;;2.88;2.58;;;;;;;;;;5054341;28;20031;-42
2022/04/30 10:21:20;;;;;;;4.07;2.45;;;;;;;;;;5055541;28;20104;-39
2022/04/30 10:23:46;;;;;;;4.03;2.85;;;;;;;;;;5055464;28;20083;-42
2022/04/30 10:26:14;;;;;;;2.95;2.40;;;;;;;;;;5055022;28;20040;-40
2022/04/30 10:28:42;;;;;;;3.20;2.42;;;;;;;;;;5055520;28;20017;-40
2022/04/30 10:31:11;;;;;;;3.60;2.92;;;;;;;;;;5055247;28;20037;-41
2022/04/30 10:33:51;;;;;;;3.42;2.72;;;;;;;;;;5055202;28;20048;-38
2022/04/30 10:36:18;;;;;;;3.92;2.30;;;;;;;;;;5055175;28;20753;-41
2022/04/30 10:38:53;;;;;;;2.40;2.20;;;;;;;;;;5055100;28;20552;-41
2022/04/30 10:41:19;;;;;;;4.53;2.53;;;;;;;;;;5054521;28;20108;-43
2022/04/30 10:43:46;;;;;;;3.72;2.65;;;;;;;;;;5055245;28;20021;-41
2022/04/30 10:46:14;;;;;;;3.47;3.15;;;;;;;;;;5054984;28;20035;-39
2022/04/30 10:48:41;;;;;;;4.28;3.08;;;;;;;;;;5054991;28;20078;-38
2022/04/30 10:51:08;;;;;;;3.53;2.38;;;;;;;;;;5054715;28;20049;-39
2022/04/30 10:53:35;;;;;;;4.38;3.15;;;;;;;;;;5054890;28;20029;-40
2022/04/30 10:56:02;;;;;;;5.40;3.40;;;;;;;;;;5054760;28;20105;-38
2022/04/30 10:58:30;;;;;;;4.18;2.78;;;;;;;;;;5054890;28;20013;-43
2022/04/30 11:00:57;;;;;;;5.60;4.10;;;;;;;;;;5055052;28;20508;-40
2022/04/30 11:03:30;;;;;;;8.75;3.55;;;;;;;;;;5055086;28;20029;-38
2022/04/30 11:05:59;;;;;;;4.00;3.30;;;;;;;;;;5054605;28;20025;-38
2022/04/30 11:08:26;;;;;;;5.40;4.07;;;;;;;;;;5054634;28;20017;-40
2022/04/30 11:10:53;;;;;;;4.45;3.83;;;;;;;;;;5054633;28;20079;-40
2022/04/30 11:13:19;;;;;;;7.47;3.63;;;;;;;;;;5054712;28;20021;-42
2022/04/30 11:15:48;;;;;;;4.28;3.30;;;;;;;;;;5054486;28;20506;-38
2022/04/30 11:18:18;;;;;;;3.17;2.60;;;;;;;;;;5054329;28;20024;-38
2022/04/30 11:20:44;;;;;;;4.60;3.50;;;;;;;;;;5054334;28;20490;-38
2022/04/30 11:23:20;;;;;;;3.83;3.00;;;;;;;;;;5054445;28;20120;-41
2022/04/30 11:25:46;;;;;;;3.65;2.85;;;;;;;;;;5053980;28;20067;-41
2022/04/30 11:28:12;;;;;;;4.18;2.92;;;;;;;;;;5054162;28;20456;-40
2022/04/30 11:30:39;;;;;;;5.28;3.38;;;;;;;;;;5053415;28;20033;-41
2022/04/30 11:33:06;;;;;;;3.75;2.90;;;;;;;;;;5053409;28;20435;-40
2022/04/30 11:35:32;;;;;;;4.35;3.20;;;;;;;;;;5053851;28;20099;-43
2022/04/30 11:37:58;;;;;;;5.00;2.72;;;;;;;;;;5054064;28;20028;-41
2022/04/30 11:40:28;;;;;;;3.80;2.90;;;;;;;;;;5054020;28;20053;-40
2022/04/30 11:42:57;;;;;;;3.72;2.53;;;;;;;;;;5053713;28;20052;-38
2022/04/30 11:45:29;;;;;;;4.13;2.90;;;;;;;;;;5053758;28;20096;-38
2022/04/30 11:47:56;;;;;;;5.18;2.65;;;;;;;;;;5053782;28;20032;-38
2022/04/30 11:50:23;;;;;;;4.00;2.75;;;;;;;;;;5053395;28;20135;-38
2022/04/30 11:52:53;;;;;;;3.40;2.85;;;;;;;;;;5053851;28;20036;-38
2022/04/30 11:55:20;;;;;;;3.83;3.10;;;;;;;;;;5053693;28;20051;-38
2022/04/30 11:57:47;;;;;;;4.10;2.88;;;;;;;;;;5053655;28;20028;-38
2022/04/30 12:00:16;;;;;;;2.38;2.17;;;;;;;;;;5053589;28;20430;-38
2022/04/30 12:02:45;;;;;;;3.92;2.63;;;;;;;;;;5053898;28;20045;-39
2022/04/30 12:05:11;;;;;;;4.63;3.03;;;;;;;;;;5053380;28;20024;-38
2022/04/30 12:07:41;;;;;;;3.40;2.78;;;;;;;;;;5053631;28;20040;-39
2022/04/30 12:10:16;;;;;;;3.22;2.90;;;;;;;;;;5053373;28;20021;-39
2022/04/30 12:12:42;;;;;;;3.35;2.20;;;;;;;;;;5053125;28;20028;-38
2022/04/30 12:15:27;;;;;;;2.55;2.30;;;;;;;;;;5053312;28;20017;-37
2022/04/30 12:26:37;;;;;;;4.18;3.00;;;;;;;;;;5053565;28;20116;-39
2022/04/30 12:29:04;;;;;;;4.13;3.10;;;;;;;;;;5053278;28;20396;-37
2022/04/30 12:31:31;;;;;;;7.25;2.65;;;;;;;;;;5052948;28;20044;-38
2022/04/30 12:33:57;;;;;;;4.10;2.65;;;;;;;;;;5053200;28;20111;-37
2022/04/30 12:36:24;;;;;;;4.57;2.67;;;;;;;;;;5053181;28;20029;-37
2022/04/30 12:38:54;;;;;;;3.60;3.30;;;;;;;;;;5053328;28;20161;-38
2022/04/30 12:41:22;;;;;;;4.15;3.15;;;;;;;;;;5054173;28;20017;-40
2022/04/30 12:43:49;;;;;;;4.88;3.70;;;;;;;;;;5055971;28;20021;-43
2022/04/30 12:46:21;;;;;;;4.88;3.80;;;;;;;;;;5057040;28;20036;-42
2022/04/30 12:48:48;;;;;;;3.95;3.22;;;;;;;;;;5057047;28;20369;-41
2022/04/30 12:51:19;;;;;;;6.13;4.07;;;;;;;;;;5056860;28;20083;-38
2022/04/30 12:53:45;;;;;;;;;;;;;;;;;;5057393;28;20032;-35
2022/04/30 12:56:12;;;;;;;5.25;4.68;;;;;;;;;;5057373;28;19904;-38
2022/04/30 12:58:38;;;;;;;8.43;4.20;;;;;;;;;;5057089;28;20029;-40
2022/04/30 13:01:04;;;;;;;7.57;4.60;;;;;;;;;;5056935;28;20083;-41
2022/04/30 13:03:31;;;;;;;6.20;3.97;;;;;;;;;;5057292;28;20115;-41
2022/04/30 13:05:57;;;;;;;9.98;4.25;;;;;;;;;;5057121;28;20033;-42
2022/04/30 13:08:23;;;;;;;4.43;3.88;;;;;;;;;;5056898;28;20057;-42
2022/04/30 13:13:34;;;;;;;5.18;4.35;;;;;;;;;;5056708;28;20040;-40
2022/04/30 13:16:08;;;;;;;4.30;3.80;;;;;;;;;;5056697;28;20025;-40
2022/04/30 13:18:34;;;;;;;5.93;4.72;;;;;;;;;;5056654;28;20473;-41
2022/04/30 13:21:03;;;;;;;6.40;4.72;;;;;;;;;;5056430;28;20029;-41
2022/04/30 13:23:29;;;;;;;4.50;3.95;;;;;;;;;;5056643;28;20477;-38
2022/04/30 13:25:55;;;;;;;6.28;4.85;;;;;;;;;;5056549;28;20052;-42
2022/04/30 13:28:21;;;;;;;8.65;4.30;;;;;;;;;;5056384;28;20017;-38
2022/04/30 13:30:47;;;;;;;6.63;4.75;;;;;;;;;;5056560;28;20406;-39
2022/04/30 13:33:13;;;;;;;7.53;4.47;;;;;;;;;;5056227;28;20025;-38
2022/04/30 13:35:39;;;;;;;5.18;4.10;;;;;;;;;;5056084;28;20092;-40
2022/04/30 13:38:05;;;;;;;8.07;4.15;;;;;;;;;;5056175;28;20171;-41
2022/04/30 13:40:32;;;;;;;5.45;4.00;;;;;;;;;;5056358;28;20465;-40
2022/04/30 13:42:58;;;;;;;4.65;4.07;;;;;;;;;;5055997;28;20029;-40
2022/04/30 13:45:24;;;;;;;4.30;3.88;;;;;;;;;;5056099;28;20021;-42
2022/04/30 13:47:50;;;;;;;5.07;4.13;;;;;;;;;;5056204;28;20489;-42
2022/04/30 13:50:17;;;;;;;5.90;4.15;;;;;;;;;;5054564;28;20073;-43
2022/04/30 13:52:43;;;;;;;5.43;4.30;;;;;;;;;;5055885;28;20111;-42
2022/04/30 13:55:09;;;;;;;6.60;4.20;;;;;;;;;;5056083;28;20025;-39
2022/04/30 13:57:39;;;;;;;4.22;3.83;;;;;;;;;;5055958;28;20025;-41
2022/04/30 14:00:07;;;;;;;7.60;3.85;;;;;;;;;;5056006;28;20079;-43
2022/04/30 14:02:33;;;;;;;4.35;3.95;;;;;;;;;;5055770;28;20079;-42
2022/04/30 14:05:01;;;;;;;4.47;3.42;;;;;;;;;;5055598;28;20385;-39
2022/04/30 14:07:27;;;;;;;4.53;4.07;;;;;;;;;;5055411;28;20033;-41
2022/04/30 14:09:53;;;;;;;11.55;4.43;;;;;;;;;;5055582;28;20025;-42
2022/04/30 14:12:19;;;;;;;7.65;5.05;;;;;;;;;;5055748;28;20056;-42
2022/04/30 14:14:58;;;;;;;5.65;4.50;;;;;;;;;;5055529;28;20021;-42
2022/04/30 14:20:14;;;;;;;5.20;4.55;;;;;;;;;;5055844;28;20448;-42
2022/04/30 14:22:40;;;;;;;5.38;4.57;;;;;;;;;;5055305;28;20053;-42
2022/04/30 14:25:11;;;;;;;6.13;4.75;;;;;;;;;;5055809;28;20032;-40
2022/04/30 14:27:38;;;;;;;5.90;4.40;;;;;;;;;;5055483;28;20040;-41
2022/04/30 14:30:07;;;;;;;6.15;4.97;;;;;;;;;;5055575;28;20385;-42
2022/04/30 14:32:34;;;;;;;7.38;5.50;;;;;;;;;;5055484;28;20029;-42
2022/04/30 14:35:00;;;;;;;5.68;4.90;;;;;;;;;;5055082;28;20492;-41
2022/04/30 14:37:29;;;;;;;5.00;4.50;;;;;;;;;;5054731;28;20060;-42
2022/04/30 14:39:55;;;;;;;5.05;4.07;;;;;;;;;;5055115;28;20017;-41
2022/04/30 14:42:22;;;;;;;4.80;4.22;;;;;;;;;;5055091;28;20473;-41
2022/04/30 14:44:48;;;;;;;4.85;3.85;;;;;;;;;;5055026;28;20040;-42
2022/04/30 14:47:15;;;;;;;5.25;3.80;;;;;;;;;;5054873;28;20105;-41
2022/04/30 14:49:42;;;;;;;6.55;4.20;;;;;;;;;;5054894;28;20094;-42
2022/04/30 14:52:09;;;;;;;4.88;4.38;;;;;;;;;;5054557;28;20477;-42
2022/04/30 14:54:35;;;;;;;7.75;5.03;;;;;;;;;;5054631;28;20072;-42
2022/04/30 14:57:02;;;;;;;5.93;5.03;;;;;;;;;;5054700;28;20074;-39
2022/04/30 14:59:28;;;;;;;4.95;4.30;;;;;;;;;;5055083;28;20435;-41
2022/04/30 15:01:54;;;;;;;4.85;4.10;;;;;;;;;;5055018;28;20515;-40
2022/04/30 15:04:20;;;;;;;4.47;4.00;;;;;;;;;;5053972;28;20037;-41
2022/04/30 15:06:46;;;;;;;5.75;4.32;;;;;;;;;;5054536;28;20469;-40
2022/04/30 15:09:12;;;;;;;4.97;3.80;;;;;;;;;;5054503;28;20029;-43
2022/04/30 15:11:39;;;;;;;4.70;4.28;;;;;;;;;;5054450;28;20068;-41
2022/04/30 15:14:05;;;;;;;5.38;4.88;;;;;;;;;;5054437;28;20029;-37
2022/04/30 15:16:33;;;;;;;6.15;4.05;;;;;;;;;;5054410;28;20040;-43
2022/04/30 15:18:59;;;;;;;5.00;4.07;;;;;;;;;;5054452;28;20017;-42
2022/04/30 15:21:25;;;;;;;9.25;4.70;;;;;;;;;;5054526;28;20021;-42